18 | 04 | 2019

Daten Vortag

Wetterdaten von 10m Höhe gemessen, Station 2

Datum / Zeit Intervall min Luftfeuchte % Temperatur °C absolut Luftdruck hPa Wind m/s Windbö m/s Richtung Relative Luftdruck hPa Taupunkt °C Windchill °C Niederschlag mm
17-04-2019 00:16 5 78 4.9 1024.5 5.0 7.2 E 1028.1 1.4 4.9 0.0
17-04-2019 00:21 5 78 4.7 1024.5 5.0 7.2 E 1028.1 1.2 4.7 0.0
17-04-2019 00:26 5 79 4.6 1024.7 3.6 5.0 E 1028.3 1.3 4.6 0.0
17-04-2019 00:31 5 80 4.6 1024.6 3.6 5.0 NE 1028.2 1.5 4.6 0.0
17-04-2019 00:36 5 80 4.6 1024.6 2.5 3.6 NE 1028.2 1.5 4.6 0.0
17-04-2019 00:41 5 80 4.5 1024.7 2.5 5.0 NE 1028.3 1.4 4.5 0.0
17-04-2019 00:46 5 80 4.4 1024.7 5.0 7.2 NE 1028.3 1.3 4.4 0.0
17-04-2019 00:51 5 80 4.3 1024.6 2.5 5.0 E 1028.2 1.2 4.3 0.0
17-04-2019 00:56 5 81 4.2 1024.7 3.6 6.1 NE 1028.3 1.2 4.2 0.0
17-04-2019 01:01 5 81 4.1 1024.6 2.5 3.6 NE 1028.2 1.1 4.1 0.0
17-04-2019 01:06 5 82 3.9 1024.7 0.0 0.0 E 1028.3 1.1 3.9 0.0
17-04-2019 01:11 5 81 3.3 1024.9 1.1 2.5 NW 1028.5 0.4 3.3 0.0
17-04-2019 01:16 5 81 3.0 1024.8 0.0 0.0 NW 1028.4 0.1 3.0 0.0
17-04-2019 01:21 5 78 2.7 1024.8 0.0 1.1 NW 1028.4 -0.7 2.7 0.0
17-04-2019 01:26 5 80 2.6 1024.9 0.0 0.0 N 1028.5 -0.5 2.6 0.0
17-04-2019 01:31 5 81 2.5 1024.7 0.0 0.0 N 1028.3 -0.4 2.5 0.0
17-04-2019 01:36 5 81 2.4 1024.8 0.0 1.1 N 1028.4 -0.5 2.4 0.0
17-04-2019 01:41 5 82 2.3 1024.9 0.0 1.1 E 1028.5 -0.5 2.3 0.0
17-04-2019 01:46 5 82 2.3 1024.7 0.0 0.0 NE 1028.3 -0.5 2.3 0.0
17-04-2019 01:51 5 82 2.3 1024.9 0.0 0.0 NW 1028.5 -0.5 2.3 0.0
17-04-2019 01:56 5 83 2.4 1024.7 1.1 2.5 NE 1028.3 -0.2 2.4 0.0
17-04-2019 02:01 5 83 2.4 1024.8 0.0 1.1 N 1028.4 -0.2 2.4 0.0
17-04-2019 02:06 5 84 2.4 1024.7 0.0 1.1 N 1028.3 0.0 2.4 0.0
17-04-2019 02:11 5 84 2.3 1024.7 0.0 1.1 NE 1028.3 -0.1 2.3 0.0
17-04-2019 02:16 5 84 2.3 1024.7 2.5 3.6 NE 1028.3 -0.1 2.3 0.0
17-04-2019 02:21 5 85 2.4 1024.6 1.1 2.5 NE 1028.2 0.1 2.4 0.0
17-04-2019 02:26 5 85 2.5 1024.7 3.6 7.2 NE 1028.3 0.2 2.5 0.0
17-04-2019 02:31 5 86 2.7 1024.6 6.1 8.6 NE 1028.2 0.6 2.7 0.0
17-04-2019 02:36 5 86 2.9 1024.5 5.0 7.2 E 1028.1 0.8 2.9 0.0
17-04-2019 02:41 5 90 3.1 1024.5 8.6 14.8 NEE 1028.1 1.6 0.5 0.0
17-04-2019 02:46 5 90 3.3 1024.5 6.1 8.6 NE 1028.1 1.8 3.3 0.0
17-04-2019 02:51 5 90 3.4 1024.6 5.0 8.6 NEE 1028.2 1.9 3.4 0.0
17-04-2019 02:56 5 89 3.5 1024.6 6.1 9.7 NE 1028.2 1.9 3.5 0.0
17-04-2019 03:01 5 88 3.4 1024.6 6.1 9.7 E 1028.2 1.6 3.4 0.0
17-04-2019 03:06 5 88 3.4 1024.5 5.0 7.2 NEE 1028.1 1.6 3.4 0.0
17-04-2019 03:11 5 88 3.0 1024.6 1.1 2.5 E 1028.2 1.2 3.0 0.0
17-04-2019 03:16 5 84 2.7 1024.7 0.0 0.0 SW 1028.3 0.3 2.7 0.0
17-04-2019 03:21 5 84 2.6 1024.6 0.0 1.1 SW 1028.2 0.2 2.6 0.0
17-04-2019 03:26 5 84 2.3 1024.7 1.1 2.5 W 1028.3 -0.1 2.3 0.0
17-04-2019 03:31 5 84 2.1 1024.7 1.1 2.5 W 1028.3 -0.3 2.1 0.0
17-04-2019 03:36 5 85 2.0 1024.7 0.0 1.1 NE 1028.3 -0.3 2.0 0.0
17-04-2019 03:41 5 85 2.0 1024.6 0.0 0.0 NE 1028.2 -0.3 2.0 0.0
17-04-2019 03:46 5 87 1.9 1024.6 0.0 0.0 N 1028.2 0.0 1.9 0.0
17-04-2019 03:51 5 87 1.7 1024.7 0.0 1.1 NE 1028.3 -0.2 1.7 0.0
17-04-2019 03:56 5 88 1.7 1024.7 1.1 2.5 NE 1028.3 -0.1 1.7 0.0
17-04-2019 04:01 5 88 1.7 1024.6 0.0 1.1 NE 1028.2 -0.1 1.7 0.0
17-04-2019 04:06 5 89 1.6 1024.6 0.0 1.1 NE 1028.2 0.0 1.6 0.0
17-04-2019 04:11 5 89 1.5 1024.6 0.0 1.1 NE 1028.2 -0.1 1.5 0.0
17-04-2019 04:16 5 89 1.4 1024.7 0.0 1.1 NE 1028.3 -0.2 1.4 0.0
17-04-2019 04:21 5 89 1.4 1024.7 0.0 0.0 E 1028.3 -0.2 1.4 0.0
17-04-2019 04:26 5 89 1.2 1024.9 0.0 0.0 E 1028.5 -0.4 1.2 0.0
17-04-2019 04:31 5 89 1.2 1024.8 0.0 0.0 SW 1028.4 -0.4 1.2 0.0
17-04-2019 04:36 5 90 1.2 1024.8 0.0 0.0 NE 1028.4 -0.3 1.2 0.0
17-04-2019 04:41 5 90 1.3 1024.7 1.1 2.5 N 1028.3 -0.2 1.3 0.0
17-04-2019 04:46 5 91 1.4 1024.7 0.0 0.0 E 1028.3 0.1 1.4 0.0
17-04-2019 04:51 5 91 1.3 1024.8 0.0 0.0 E 1028.4 0.0 1.3 0.0
17-04-2019 04:56 5 91 1.2 1024.7 0.0 0.0 E 1028.3 -0.1 1.2 0.0
17-04-2019 05:01 5 91 1.1 1024.7 0.0 0.0 E 1028.3 -0.2 1.1 0.0
17-04-2019 05:06 5 91 1.0 1024.8 2.5 3.6 NE 1028.4 -0.3 1.0 0.0
17-04-2019 05:11 5 91 1.1 1024.9 2.5 3.6 NE 1028.5 -0.2 1.1 0.0
17-04-2019 05:16 5 92 1.3 1024.8 6.1 8.6 NE 1028.4 0.1 1.3 0.0
17-04-2019 05:21 5 92 1.5 1024.9 5.0 6.1 NEE 1028.5 0.3 1.5 0.0
17-04-2019 05:26 5 91 1.6 1024.8 6.1 11.2 NE 1028.4 0.3 1.6 0.0
17-04-2019 05:31 5 90 1.9 1024.8 2.5 5.0 NEE 1028.4 0.4 1.9 0.0
17-04-2019 05:36 5 88 2.0 1024.8 5.0 7.2 NE 1028.4 0.2 2.0 0.0
17-04-2019 05:41 5 86 2.2 1024.9 3.6 6.1 E 1028.5 0.1 2.2 0.0
17-04-2019 05:46 5 85 2.2 1024.8 5.0 8.6 NE 1028.4 -0.1 2.2 0.0
17-04-2019 05:51 5 84 2.2 1024.9 7.2 9.7 NE 1028.5 -0.2 0.7 0.0
17-04-2019 05:56 5 84 2.3 1024.9 5.0 8.6 E 1028.5 -0.1 2.3 0.0
17-04-2019 06:01 5 83 2.3 1025.0 3.6 5.0 NE 1028.6 -0.3 2.3 0.0
17-04-2019 06:06 5 83 2.3 1024.9 3.6 6.1 NE 1028.5 -0.3 2.3 0.0
17-04-2019 06:11 5 83 2.3 1025.0 3.6 6.1 NE 1028.6 -0.3 2.3 0.0
17-04-2019 06:16 5 82 2.4 1025.1 5.0 7.2 NE 1028.7 -0.4 2.4 0.0
17-04-2019 06:21 5 82 2.3 1025.0 1.1 3.6 NE 1028.6 -0.5 2.3 0.0
17-04-2019 06:26 5 82 2.2 1025.0 2.5 6.1 E 1028.6 -0.6 2.2 0.0
17-04-2019 06:31 5 82 2.0 1025.2 3.6 5.0 NE 1028.8 -0.7 2.0 0.0
17-04-2019 06:36 5 82 1.9 1025.1 2.5 5.0 NE 1028.7 -0.8 1.9 0.0
17-04-2019 06:41 5 83 1.8 1025.1 2.5 6.1 N 1028.7 -0.8 1.8 0.0
17-04-2019 06:46 5 83 1.8 1025.2 0.0 2.5 NE 1028.8 -0.8 1.8 0.0
17-04-2019 06:51 5 83 1.8 1025.1 5.0 7.2 NE 1028.7 -0.8 1.8 0.0
17-04-2019 06:56 5 83 1.9 1025.2 0.0 2.5 NE 1028.8 -0.7 1.9 0.0
17-04-2019 07:01 5 83 1.9 1025.4 1.1 3.6 NE 1029.0 -0.7 1.9 0.0
17-04-2019 07:06 5 83 1.9 1025.4 1.1 2.5 N 1029.0 -0.7 1.9 0.0
17-04-2019 07:11 5 81 2.1 1025.4 2.5 5.0 N 1029.0 -0.8 2.1 0.0
17-04-2019 07:16 5 82 2.4 1025.6 1.1 2.5 NE 1029.2 -0.4 2.4 0.0
17-04-2019 07:21 5 82 2.9 1025.6 0.0 0.0 N 1029.2 0.1 2.9 0.0
17-04-2019 07:26 5 86 3.6 1025.6 1.1 2.5 N 1029.2 1.5 3.6 0.0
17-04-2019 07:31 5 83 4.3 1025.6 1.1 2.5 N 1029.2 1.7 4.3 0.0
17-04-2019 07:36 5 80 4.7 1025.8 1.1 2.5 N 1029.4 1.6 4.7 0.0
17-04-2019 07:41 5 78 4.9 1025.8 1.1 2.5 NE 1029.4 1.4 4.9 0.0
17-04-2019 07:46 5 76 5.3 1025.9 1.1 3.6 N 1029.5 1.4 5.3 0.0
17-04-2019 07:51 5 75 5.5 1026.0 1.1 3.6 E 1029.6 1.4 5.5 0.0
17-04-2019 07:56 5 75 5.6 1026.2 3.6 5.0 NE 1029.8 1.5 5.6 0.0
17-04-2019 08:01 5 75 5.6 1026.2 6.1 8.6 NE 1029.8 1.5 5.6 0.0
17-04-2019 08:06 5 76 5.7 1026.2 6.1 8.6 NEE 1029.8 1.8 5.7 0.0
17-04-2019 08:11 5 76 5.8 1026.3 6.1 9.7 NE 1029.9 1.9 5.8 0.0
17-04-2019 08:16 5 76 6.1 1026.3 5.0 7.2 NE 1029.9 2.2 6.1 0.0
17-04-2019 08:21 5 76 6.3 1026.4 5.0 8.6 NE 1030.0 2.4 6.3 0.0
17-04-2019 08:26 5 75 6.5 1026.4 6.1 8.6 S 1030.0 2.4 6.5 0.0
17-04-2019 08:31 5 76 6.8 1026.5 6.1 8.6 E 1030.1 2.9 6.8 0.0
17-04-2019 08:36 5 76 6.9 1026.6 5.0 6.1 E 1030.2 3.0 6.9 0.0
17-04-2019 08:41 5 75 7.5 1026.5 3.6 6.1 NEE 1030.1 3.4 7.5 0.0
17-04-2019 08:46 5 73 7.7 1026.6 7.2 11.2 E 1030.2 3.2 6.5 0.0
17-04-2019 08:51 5 72 7.7 1026.5 6.1 11.2 E 1030.1 3.0 7.7 0.0
17-04-2019 08:56 5 70 8.0 1026.6 9.7 13.3 E 1030.2 2.9 5.2 0.0
17-04-2019 09:01 5 69 8.1 1026.5 9.7 12.2 E 1030.1 2.8 5.3 0.0
17-04-2019 09:06 5 68 8.4 1026.6 9.7 13.3 E 1030.2 2.8 5.6 0.0
17-04-2019 09:11 5 68 8.8 1026.6 7.2 11.2 E 1030.2 3.2 7.6 0.0
17-04-2019 09:16 5 66 9.0 1026.6 8.6 12.2 NEE 1030.2 3.0 6.9 0.0
17-04-2019 09:21 5 66 8.9 1026.7 7.2 9.7 E 1030.3 2.9 7.7 0.0
17-04-2019 09:26 5 65 9.3 1026.7 6.1 7.2 NE 1030.3 3.1 9.3 0.0
17-04-2019 09:31 5 65 9.8 1026.7 8.6 11.2 NE 1030.3 3.5 7.8 0.0
17-04-2019 09:36 5 63 10.0 1026.8 8.6 11.2 E 1030.4 3.3 8.0 0.0
17-04-2019 09:41 5 64 9.8 1026.8 9.7 13.3 E 1030.4 3.3 7.2 0.0
17-04-2019 09:46 5 63 10.0 1027.0 7.2 8.6 NEE 1030.6 3.3 8.9 0.0
17-04-2019 09:51 5 63 10.2 1027.0 7.2 9.7 NE 1030.6 3.5 9.1 0.0
17-04-2019 09:56 5 63 10.5 1027.0 8.6 12.2 E 1030.6 3.8 8.5 0.0
17-04-2019 10:01 5 61 10.5 1026.9 6.1 7.2 NE 1030.5 3.3 10.5 0.0
17-04-2019 10:06 5 61 10.6 1026.9 5.0 11.2 NEE 1030.5 3.4 10.6 0.0
17-04-2019 10:11 5 61 10.6 1027.0 5.0 11.2 NEE 1030.6 3.4 10.6 0.0
17-04-2019 10:16 5 59 10.6 1026.9 15.8 23.4 E 1030.5 2.9 5.6 0.0
17-04-2019 10:21 5 59 10.7 1027.0 12.2 15.8 NE 1030.6 3.0 7.0 0.0
17-04-2019 10:26 5 58 11.0 1027.0 12.2 14.8 NE 1030.6 3.1 7.4 0.0
17-04-2019 10:31 5 57 11.4 1027.0 11.2 14.8 E 1030.6 3.2 8.3 0.0
17-04-2019 10:36 5 57 11.4 1026.8 14.8 17.3 E 1030.4 3.2 6.9 0.0
17-04-2019 10:41 5 56 11.2 1026.8 7.2 13.3 NE 1030.4 2.8 10.1 0.0
17-04-2019 10:46 5 58 11.6 1026.8 9.7 12.2 NE 1030.4 3.6 9.2 0.0
17-04-2019 10:51 5 58 11.8 1027.0 12.2 14.8 SE 1030.6 3.8 8.3 0.0
17-04-2019 10:56 5 56 12.2 1026.8 8.6 12.2 NE 1030.4 3.7 10.4 0.0
17-04-2019 11:01 5 56 12.5 1026.9 8.6 12.2 E 1030.5 4.0 10.7 0.0
17-04-2019 11:06 5 54 12.2 1026.8 8.6 15.8 NE 1030.4 3.2 10.4 0.0
17-04-2019 11:11 5 55 12.4 1026.7 11.2 17.3 NE 1030.3 3.6 9.4 0.0
17-04-2019 11:16 5 52 12.4 1026.8 12.2 15.8 E 1030.4 2.8 9.0 0.0
17-04-2019 11:21 5 52 12.6 1026.6 13.3 19.4 NE 1030.2 3.0 8.8 0.0
17-04-2019 11:26 5 51 12.8 1026.8 9.7 15.8 SE 1030.4 2.9 10.5 0.0
17-04-2019 11:31 5 50 12.9 1026.8 11.2 15.8 E 1030.4 2.7 10.0 0.0
17-04-2019 11:36 5 51 13.5 1026.7 9.7 13.3 E 1030.3 3.6 11.3 0.0
17-04-2019 11:41 5 48 13.6 1026.7 12.2 15.8 E 1030.3 2.8 10.4 0.0
17-04-2019 11:46 5 45 13.7 1026.7 8.6 14.8 E 1030.3 2.0 12.0 0.0
17-04-2019 11:51 5 44 13.3 1026.8 14.8 20.9 E 1030.4 1.3 9.2 0.0
17-04-2019 11:56 5 43 13.4 1026.9 19.4 25.6 E 1030.5 1.1 8.0 0.0
17-04-2019 12:01 5 43 13.6 1026.8 12.2 18.4 E 1030.4 1.3 10.4 0.0
17-04-2019 12:06 5 45 13.8 1026.7 7.2 9.7 NEE 1030.3 2.1 12.9 0.0
17-04-2019 12:11 5 45 13.8 1026.8 7.2 9.7 NEE 1030.4 2.1 12.9 0.0
17-04-2019 12:16 5 43 13.8 1026.7 15.8 20.9 E 1030.3 1.5 9.5 0.0
17-04-2019 12:21 5 44 13.7 1026.8 11.2 14.8 E 1030.4 1.7 10.9 0.0
17-04-2019 12:26 5 43 14.1 1026.8 19.4 22.0 E 1030.4 1.7 8.9 0.0
17-04-2019 12:31 5 41 13.7 1026.8 15.8 19.4 E 1030.4 0.7 9.4 0.0
17-04-2019 12:36 5 42 14.1 1026.6 13.3 17.3 SE 1030.2 1.4 10.6 0.0
17-04-2019 12:37 5 40 14.4 1026.6 11.2 14.8 E 1030.2 1.0 11.7 0.0
17-04-2019 12:43 5 42 14.7 1026.7 11.2 18.4 E 1030.3 1.9 12.1 0.0
17-04-2019 12:48 5 39 14.6 1026.7 15.8 20.9 E 1030.3 0.8 10.5 0.0
17-04-2019 12:53 5 40 14.5 1026.6 15.8 20.9 E 1030.2 1.1 10.3 0.0
17-04-2019 12:58 5 40 14.5 1026.6 9.7 12.2 NEE 1030.2 1.1 12.4 0.0
17-04-2019 13:03 5 41 14.7 1026.6 11.2 15.8 E 1030.2 1.6 12.1 0.0
17-04-2019 13:08 5 40 14.9 1026.5 17.3 23.4 E 1030.1 1.4 10.5 0.0
17-04-2019 13:13 5 41 14.7 1026.6 12.2 15.8 E 1030.2 1.6 11.7 0.0
17-04-2019 13:18 5 43 15.3 1026.6 13.3 17.3 E 1030.2 2.8 12.0 0.0
17-04-2019 13:23 5 44 15.4 1026.6 12.2 14.8 E 1030.2 3.2 12.5 0.0
17-04-2019 13:28 5 44 15.4 1026.7 17.3 23.4 E 1030.3 3.2 11.1 0.0
17-04-2019 13:33 5 45 15.2 1026.7 18.4 24.5 E 1030.3 3.4 10.6 0.0
17-04-2019 13:38 5 47 15.2 1026.6 17.3 24.5 NEE 1030.2 4.0 10.8 0.0
17-04-2019 13:43 5 48 15.3 1026.5 13.3 18.4 E 1030.1 4.4 12.0 0.0
17-04-2019 13:48 5 49 15.7 1026.4 13.3 17.3 E 1030.0 5.0 12.5 0.0
17-04-2019 13:53 5 50 15.7 1026.5 9.7 17.3 E 1030.1 5.3 13.8 0.0
17-04-2019 13:58 5 49 15.9 1026.3 13.3 19.4 SE 1029.9 5.2 12.8 0.0
17-04-2019 14:03 5 49 15.8 1026.3 3.6 7.2 E 1029.9 5.1 15.8 0.0
17-04-2019 14:08 5 49 15.8 1026.3 3.6 7.2 E 1029.9 5.1 15.8 0.0
17-04-2019 14:13 5 49 16.1 1026.3 18.4 22.0 NEE 1029.9 5.4 11.7 0.0
17-04-2019 14:18 5 52 15.9 1026.4 18.4 22.0 E 1030.0 6.1 11.5 0.0
17-04-2019 14:23 5 53 15.7 1026.1 18.4 25.6 NE 1029.7 6.2 11.2 0.0
17-04-2019 14:28 5 52 15.8 1026.2 14.8 19.4 E 1029.8 6.0 12.2 0.0
17-04-2019 14:33 5 52 16.0 1026.2 14.8 18.4 E 1029.8 6.2 12.5 0.0
17-04-2019 14:38 5 52 16.0 1026.1 9.7 18.4 SE 1029.7 6.2 14.1 0.0
17-04-2019 14:43 5 52 16.2 1026.2 15.8 22.0 E 1029.8 6.4 12.4 0.0
17-04-2019 14:48 5 52 16.4 1026.2 19.4 25.6 E 1029.8 6.5 11.9 0.0
17-04-2019 14:53 5 51 16.1 1026.2 13.3 18.4 NEE 1029.8 6.0 13.0 0.0
17-04-2019 14:58 5 52 16.2 1026.3 18.4 22.0 E 1029.9 6.4 11.8 0.0
17-04-2019 15:03 5 50 16.1 1026.2 17.3 27.0 SE 1029.8 5.7 11.9 0.0
17-04-2019 15:08 5 52 16.2 1026.2 18.4 22.0 NE 1029.8 6.4 11.8 0.0
17-04-2019 15:13 5 52 16.3 1026.2 14.8 20.9 E 1029.8 6.4 12.8 0.0
17-04-2019 15:18 5 52 16.5 1026.1 12.2 18.4 E 1029.7 6.6 13.8 0.0
17-04-2019 15:23 5 50 16.5 1026.2 12.2 19.4 E 1029.8 6.1 13.8 0.0
17-04-2019 15:28 5 52 16.6 1026.1 14.8 19.4 E 1029.7 6.7 13.2 0.0
17-04-2019 15:33 5 51 16.6 1026.1 19.4 23.4 E 1029.7 6.4 12.1 0.0
17-04-2019 15:38 5 51 16.7 1026.1 12.2 17.3 E 1029.7 6.5 14.0 0.0
17-04-2019 15:43 5 51 16.8 1026.0 18.4 25.6 E 1029.6 6.6 12.6 0.0
17-04-2019 15:48 5 50 16.9 1026.1 8.6 13.3 E 1029.7 6.4 15.5 0.0
17-04-2019 15:53 5 48 16.8 1026.1 14.8 22.0 SEE 1029.7 5.7 13.4 0.0
17-04-2019 15:58 5 47 17.0 1026.0 15.8 25.6 SEE 1029.6 5.6 13.4 0.0
17-04-2019 16:03 5 48 16.8 1026.0 17.3 24.5 SSE 1029.6 5.7 12.8 0.0
17-04-2019 16:08 5 48 16.8 1026.0 17.3 24.5 SSE 1029.6 5.7 12.8 0.0
17-04-2019 16:13 5 48 17.2 1026.0 12.2 17.3 E 1029.6 6.1 14.6 0.0
17-04-2019 16:18 5 49 17.3 1026.0 8.6 12.2 E 1029.6 6.5 15.9 0.0
17-04-2019 16:23 5 47 17.3 1026.0 11.2 14.8 E 1029.6 5.9 15.0 0.0
17-04-2019 16:28 5 46 17.3 1025.9 13.3 18.4 E 1029.5 5.6 14.4 0.0
17-04-2019 16:33 5 52 17.2 1025.8 12.2 23.4 E 1029.4 7.3 14.6 0.0
17-04-2019 16:38 5 54 17.5 1025.9 9.7 12.2 E 1029.5 8.1 15.8 0.0
17-04-2019 16:43 5 53 17.3 1025.8 19.4 24.5 NE 1029.4 7.7 13.0 0.0
17-04-2019 16:48 5 53 16.7 1025.7 13.3 17.3 N 1029.3 7.1 13.7 0.0
17-04-2019 16:53 5 53 16.8 1026.0 17.3 23.4 NE 1029.6 7.2 12.8 0.0
17-04-2019 16:58 5 53 16.7 1025.8 19.4 28.1 E 1029.4 7.1 12.2 0.0
17-04-2019 17:03 5 54 16.8 1026.0 14.8 20.9 NEE 1029.6 7.5 13.4 0.0
17-04-2019 17:08 5 52 16.6 1026.0 13.3 18.4 NEE 1029.6 6.7 13.6 0.0
17-04-2019 17:13 5 53 16.8 1025.9 11.2 14.8 NEE 1029.5 7.2 14.5 0.0
17-04-2019 17:18 5 51 16.7 1026.0 18.4 20.9 E 1029.6 6.5 12.5 0.0
17-04-2019 17:23 5 50 16.6 1026.0 14.8 20.9 NE 1029.6 6.2 13.2 0.0
17-04-2019 17:28 5 50 16.5 1026.0 15.8 19.4 NE 1029.6 6.1 12.8 0.0
17-04-2019 17:33 5 50 16.5 1026.0 23.4 25.6 E 1029.6 6.1 11.3 0.0
17-04-2019 17:38 5 52 16.4 1026.1 9.7 14.8 NEE 1029.7 6.5 14.5 0.0
17-04-2019 17:43 5 49 16.4 1025.9 18.4 22.0 E 1029.5 5.7 12.1 0.0
17-04-2019 17:48 5 49 16.3 1025.9 18.4 30.6 E 1029.5 5.6 12.0 0.0
17-04-2019 17:53 5 47 16.2 1026.1 12.2 18.4 SE 1029.7 4.9 13.4 0.0
17-04-2019 17:58 5 49 16.3 1026.0 19.4 30.6 NE 1029.6 5.6 11.7 0.0
17-04-2019 18:03 5 48 16.2 1026.0 15.8 22.0 NEE 1029.6 5.2 12.4 0.0
17-04-2019 18:08 5 48 16.2 1026.1 15.8 22.0 NEE 1029.7 5.2 12.4 0.0
17-04-2019 18:13 5 48 16.0 1026.0 14.8 20.9 NE 1029.6 5.0 12.5 0.0
17-04-2019 18:18 5 48 16.0 1026.1 11.2 20.9 E 1029.7 5.0 13.6 0.0
17-04-2019 18:23 5 48 16.0 1026.1 11.2 15.8 E 1029.7 5.0 13.6 0.0
17-04-2019 18:28 5 49 15.9 1026.1 22.0 29.5 E 1029.7 5.2 10.7 0.0
17-04-2019 18:33 5 49 15.7 1025.9 13.3 17.3 SSW 1029.5 5.0 12.5 0.0
17-04-2019 18:38 5 50 15.5 1026.0 13.3 15.8 NEE 1029.6 5.1 12.3 0.0
17-04-2019 18:43 5 52 15.3 1026.1 17.3 20.9 E 1029.7 5.5 11.0 0.0
17-04-2019 18:48 5 51 15.2 1026.0 9.7 13.3 E 1029.6 5.1 13.2 0.0
17-04-2019 18:53 5 50 15.2 1026.1 11.2 15.8 NE 1029.7 4.9 12.6 0.0
17-04-2019 18:58 5 50 15.2 1026.2 12.2 15.8 E 1029.8 4.9 12.3 0.0
17-04-2019 19:03 5 51 15.3 1026.3 6.1 11.2 NE 1029.9 5.2 15.3 0.0
17-04-2019 19:08 5 49 15.1 1026.3 11.2 14.8 SEE 1029.9 4.5 12.5 0.0
17-04-2019 19:13 5 47 15.0 1026.2 13.3 20.9 E 1029.8 3.8 11.7 0.0
17-04-2019 19:18 5 46 14.8 1026.3 8.6 12.2 NEE 1029.9 3.3 13.2 0.0
17-04-2019 19:23 5 46 14.6 1026.4 9.7 13.3 E 1030.0 3.1 12.5 0.0
17-04-2019 19:28 5 45 14.5 1026.3 11.2 15.8 NE 1029.9 2.7 11.8 0.0
17-04-2019 19:33 5 45 14.4 1026.5 8.6 11.2 E 1030.1 2.6 12.8 0.0
17-04-2019 19:38 5 47 14.1 1026.6 9.7 12.2 E 1030.2 3.0 12.0 0.0
17-04-2019 19:43 5 48 13.8 1026.3 13.3 15.8 NE 1029.9 3.0 10.3 0.0
17-04-2019 19:48 5 46 13.5 1026.6 9.7 17.3 NE 1030.2 2.1 11.3 0.0
17-04-2019 19:53 5 47 13.3 1026.6 8.6 11.2 NE 1030.2 2.2 11.6 0.0
17-04-2019 19:58 5 51 12.8 1026.7 9.7 14.8 NE 1030.3 2.9 10.5 0.0
17-04-2019 20:03 5 52 12.5 1026.7 17.3 23.4 E 1030.3 2.9 7.5 0.0
17-04-2019 20:08 5 52 12.5 1026.8 17.3 23.4 E 1030.4 2.9 7.5 0.0
17-04-2019 20:13 5 52 11.9 1026.9 11.2 14.8 NEE 1030.5 2.4 8.9 0.0
17-04-2019 20:18 5 53 11.8 1027.0 19.4 25.6 E 1030.6 2.5 6.0 0.0
17-04-2019 20:23 5 53 11.7 1027.0 11.2 15.8 NE 1030.6 2.5 8.6 0.0
17-04-2019 20:28 5 53 11.4 1027.0 7.2 11.2 NE 1030.6 2.2 10.3 0.0
17-04-2019 20:33 5 54 11.1 1027.2 9.7 12.2 NE 1030.8 2.2 8.6 0.0
17-04-2019 20:38 5 57 10.8 1027.3 8.6 12.2 NE 1030.9 2.6 8.9 0.0
17-04-2019 20:43 5 59 10.5 1027.4 8.6 11.2 NEE 1031.0 2.8 8.5 0.0
17-04-2019 20:48 5 62 10.1 1027.3 7.2 8.6 E 1030.9 3.2 9.0 0.0
17-04-2019 20:53 5 64 9.8 1027.5 7.2 8.6 NEE 1031.1 3.3 8.7 0.0
17-04-2019 20:58 5 64 9.7 1027.6 7.2 13.3 NE 1031.2 3.2 8.6 0.0
17-04-2019 21:03 5 64 9.6 1027.7 8.6 13.3 NNE 1031.3 3.1 7.6 0.0
17-04-2019 21:08 5 64 9.5 1027.7 7.2 12.2 NE 1031.3 3.0 8.4 0.0
17-04-2019 21:13 5 65 9.2 1027.8 6.1 8.6 NE 1031.4 3.0 9.2 0.0
17-04-2019 21:18 5 65 9.0 1027.7 6.1 9.7 NE 1031.3 2.8 9.0 0.0
17-04-2019 21:23 5 67 8.9 1027.8 8.6 11.2 NE 1031.4 3.1 6.8 0.0
17-04-2019 21:28 5 67 8.8 1027.9 6.1 8.6 NE 1031.5 3.0 8.8 0.0
17-04-2019 21:33 5 67 8.8 1027.9 5.0 8.6 NE 1031.5 3.0 8.8 0.0
17-04-2019 21:38 5 67 8.6 1027.9 0.0 1.1 N 1031.5 2.8 8.6 0.0
17-04-2019 21:43 5 67 8.3 1028.0 0.0 0.0 SE 1031.6 2.5 8.3 0.0
17-04-2019 21:48 5 68 8.0 1028.1 0.0 0.0 N 1031.7 2.5 8.0 0.0
17-04-2019 21:53 5 71 7.9 1028.0 1.1 2.5 NW 1031.6 3.0 7.9 0.0
17-04-2019 21:58 5 72 7.7 1028.0 0.0 1.1 NE 1031.6 3.0 7.7 0.0
17-04-2019 22:03 5 72 7.6 1028.0 0.0 2.5 NE 1031.6 2.9 7.6 0.0
17-04-2019 22:08 5 72 7.6 1028.1 0.0 2.5 NE 1031.7 2.9 7.6 0.0
17-04-2019 22:13 5 74 7.3 1028.1 1.1 2.5 NE 1031.7 3.0 7.3 0.0
17-04-2019 22:18 5 75 7.2 1028.2 3.6 6.1 E 1031.8 3.1 7.2 0.0
17-04-2019 22:23 5 75 7.2 1028.1 3.6 5.0 E 1031.7 3.1 7.2 0.0
17-04-2019 22:28 5 75 7.0 1028.1 3.6 6.1 E 1031.7 2.9 7.0 0.0
17-04-2019 22:33 5 77 6.9 1028.0 3.6 6.1 N 1031.6 3.2 6.9 0.0
17-04-2019 22:38 5 78 6.8 1028.1 2.5 3.6 N 1031.7 3.2 6.8 0.0
17-04-2019 22:43 5 79 6.6 1028.1 1.1 3.6 N 1031.7 3.2 6.6 0.0
17-04-2019 22:48 5 79 6.4 1028.2 2.5 3.6 NE 1031.8 3.0 6.4 0.0
17-04-2019 22:53 5 81 6.5 1028.2 6.1 9.7 NE 1031.8 3.5 6.5 0.0
17-04-2019 22:58 5 82 6.5 1028.3 3.6 5.0 NE 1031.9 3.7 6.5 0.0
17-04-2019 23:03 5 82 6.5 1028.3 3.6 6.1 NE 1031.9 3.7 6.5 0.0
17-04-2019 23:08 5 83 6.5 1028.3 3.6 6.1 E 1031.9 3.8 6.5 0.0
17-04-2019 23:13 5 83 6.5 1028.3 3.6 6.1 NE 1031.9 3.8 6.5 0.0
17-04-2019 23:18 5 83 6.5 1028.4 2.5 6.1 NE 1032.0 3.8 6.5 0.0
17-04-2019 23:23 5 83 6.5 1028.4 2.5 5.0 NE 1032.0 3.8 6.5 0.0
17-04-2019 23:28 5 83 6.3 1028.3 1.1 3.6 N 1031.9 3.6 6.3 0.0
17-04-2019 23:33 5 82 6.0 1028.5 1.1 3.6 NE 1032.1 3.2 6.0 0.0
17-04-2019 23:38 5 84 5.8 1028.4 0.0 2.5 NE 1032.0 3.3 5.8 0.0
17-04-2019 23:43 5 84 5.7 1028.4 1.1 2.5 N 1032.0 3.2 5.7 0.0
17-04-2019 23:48 5 85 5.6 1028.5 1.1 2.5 N 1032.1 3.3 5.6 0.0
17-04-2019 23:53 5 85 5.3 1028.5 1.1 2.5 N 1032.1 3.0 5.3 0.0
17-04-2019 23:58 5 86 5.2 1028.6 2.5 3.6 N 1032.2 3.1 5.2 0.0

                                                                                Tabelle: 07 : 00 UHR

STATIONHÖHELUFTD.TEMP.T-MinT-MaxU%RR1RR12SSSDDFFFXWetter+WolkenBöen
UFS TW Ems 0 1023.6 8.6 8.1 8.9 78 ---- --- --- O 32 --- --- ---
UFS Deutsche Bucht 0 ------ --- --- --- --- ---- --- --- -- --- --- --- ---
Helgoland 4 1025.4 7.9 7.5 9.0 66 0.0 0 0 -- --- ---   ---
List/Sylt 26 1027.3 5.6 5.0 8.8 78 0.0 0 0 SO 38 50 wolkenlos Windböen
Schleswig 43 1028.2 6.3 3.9 7.8 79 0.0 0 0 O 16 29 wolkenlos ---
Leuchtturm Kiel 5 1028.5 6.4 6.0 7.5 77 ---- --- --- O 44 53 --- Windböen
Kiel 27 1028.7 5.6 2.7 7.8 76 0.0 0 0 O 6 14 wolkenlos ---
Fehmarn 3 1029.5 6.6 5.3 7.2 76 0.0 0 0 O 24 32 wolkenlos ---
Arkona 42 1030.7 6.7 4.8 6.7 77 0.0 0 0 O 19 31 wolkenlos ---
Norderney 11 1023.7 7.1 6.1 9.3 58 0.0 0 0 O 19 32 wolkenlos ---
Leuchtt. Alte Weser 32 1024.9 6.6 6.3 12.0 69 ---- --- --- O 36 --- --- ---
Cuxhaven 5 1025.9 6.6 6.1 11.1 71 0.0 0 0 SO 27 39 wolkenlos ---
Hamburg-Flh. 11 1027.0 7.3 5.7 13.6 49 0.0 0 0 O 19 30 wolkenlos ---
Schwerin 59 1028.4 5.3 4.0 12.6 63 0.0 0 0 O 10 20 wolkenlos ---
Rostock 4 1029.5 6.1 4.7 9.9 71 0.0 0 0 SO 12 22 wolkenlos ---
Greifswald 2 1030.0 6.0 0.3 8.1 78 0.0 0 0 O 13 19 wolkenlos ---
Emden 0 1023.5 7.2 4.9 12.5 57 0.0 0 0 O 18 27 wolkenlos ---
Bremen-Flh. 5 1024.6 7.8 4.6 14.3 51 0.0 0 0 O 18 26 wolkenlos ---
Lüchow 17 1027.2 6.5 4.4 13.6 49 0.0 0 0 O 10 21 wolkenlos ---
Marnitz 81 1028.3 5.5 0.3 11.9 50 0.0 0 --- O 3 6 wolkenlos ---
Waren 70 1029.0 4.5 2.3 10.4 60 0.0 0 0 NO 10 19 wolkenlos ---
Neuruppin 38 1028.2 5.4 2.6 11.5 58 0.0 0 --- O 8 14 --- ---
Angermünde 56 1029.0 3.5 -0.8 11.0 67 0.0 0 0 NO 6 12 wolkenlos ---
Münster/Osnabr.-Flh. 48 1021.9 10.8 9.0 16.2 46 0.0 0 0 O 5 13 heiter ---
Hannover-Flh. 59 1024.9 6.2 3.1 14.5 56 0.0 0 0 O 13 18 wolkenlos ---
Magdeburg 76 1026.3 6.6 4.6 14.3 49 0.0 0 0 O 5 11 wolkenlos ---
Potsdam 81 1027.5 5.3 2.9 12.5 59 0.0 0 0 O 12 22 wolkenlos ---
Berlin-Tegel 37 1027.8 5.7 3.9 13.6 58 0.0 0 0 O 9 15 wolkenlos ---
Berlin-Tempelhof 48 1027.8 5.8 2.4 13.4 59 0.0 0 --- O 14 21 --- ---
Berlin-Dahlem 51 1027.6 4.8 2.8 12.5 --- ---- 0 0 O 11 --- heiter ---
Lindenberg 91 1027.8 4.9 3.6 12.0 65 0.0 0 0 O 10 22 wolkenlos ---
Düsseldorf-Flh. 45 1020.9 11.9 8.9 15.5 77 0.0 0 0 SO 12 22 leichter Regen ---
Essen 150 1021.0 11.2 10.3 14.9 73 0.0 0 0 SO 14 22 Regen ---
Kahler Asten 839 ------ 5.7 5.3 10.9 56 0.0 0 0 SO 22 30 --- ---
Bad Lippspringe 157 1022.4 10.0 8.7 14.7 46 0.0 0 0 O 21 31 wolkenlos ---
Fritzlar 174 1023.1 9.5 5.5 14.9 47 ---- 0 0 O 7 --- stark bewölkt ---
Brocken 1142 ------ 4.6 3.0 4.7 45 ---- 0 106 SO 35 44 wolkenlos ---
Leipzig-Flh. 142 1025.8 4.8 2.6 11.9 64 0.0 0 0 O 13 22 wolkenlos ---
Dresden-Flh. 227 1026.1 6.9 1.2 11.9 51 0.0 0 0 O 9 15 wolkenlos ---
Cottbus 69 1027.2 4.5 2.2 12.8 60 0.0 0 0 O 7 17 wolkenlos ---
Görlitz 238 1026.9 4.7 0.3 11.1 59 0.0 0 0 O 6 14 wolkenlos ---
Aachen 231 1020.2 9.0 8.4 11.9 96 0.3 1 0 O 12 15 Regen ---
Nürburg 485 1020.9 7.9 7.4 9.7 95 0.0 2 0 SO 10 20 leichter Regen ---
Köln/Bonn-Flh. 92 1021.2 9.9 9.3 14.5 93 0.3 1 0 O 13 21 leichter Regen ---
Gießen/Wettenberg 203 1022.4 7.8 7.7 16.1 94 0.4 1 0 NO 7 10 leichter Regen ---
Wasserkuppe 921 ------ 6.9 5.5 9.4 47 0.0 0 0 SO 21 29 bewölkt ---
Meiningen 450 1023.8 7.5 4.3 13.8 47 0.0 0 0 S 6 10 --- ---
Erfurt 316 1024.7 4.7 3.1 12.0 73 0.0 0 0 NW 3 10 heiter ---
Gera 311 1025.6 2.3 0.8 11.8 73 0.0 0 0 S 3 8 wolkenlos ---
Fichtelberg 1213 ------ 3.4 -0.3 3.9 48 ---- --- --- SO 17 26 wolkenlos ---
Trier 265 1021.2 8.9 8.6 10.0 93 0.0 2 0 S 9 15 Dunst oder flacher Nebel ---
Hahn-Flh. 497 1021.3 7.9 7.4 10.5 100 0.0 4 0 S 13 24 --- ---
Frankfurt/M-Flh. 112 1022.2 10.7 9.8 16.1 88 0.4 4 0 O 4 5 leichter Regen ---
OF-Wetterpark 119 1022.4 10.0 9.6 16.6 97 ---- --- 0 O 3 5 leichter Regen ---
Würzburg 268 1023.0 9.9 9.4 16.2 47 0.0 0 0 O 9 13 --- ---
Bamberg 239 ------ --- --- --- --- ---- --- --- -- --- --- --- ---
Hof 567 1024.9 5.5 1.7 12.0 50 0.0 0 0 SO 6 11 wolkenlos ---
Weiden 438 1025.1 3.9 0.4 12.2 58 0.0 0 0 NO 5 8 wolkenlos ---
Saarbrücken-Flh. 320 1021.9 8.6 8.0 9.8 95 0.0 4 0 S 8 11 Dunst oder flacher Nebel ---
Karlsruhe-Rheinst. 116 1022.0 10.5 9.6 13.6 100 0.1 2 0 - 0 5 Regen ---
Mannheim 96 1022.1 10.4 9.8 16.0 95 0.1 3 0 - 0 4 Regen ---
Stuttgart-Flh. 371 1022.1 8.7 8.2 12.3 97 0.0 1 0 NO 4 5 Regen ---
Öhringen 276 1022.3 9.5 9.4 15.8 94 0.2 1 0 SO 4 5 leichter Regen ---
Nürnberg-Flh. 314 1023.3 8.4 4.8 16.2 49 0.0 0 0 O 9 11 bewölkt ---
Regensburg 366 1024.4 4.5 2.5 14.2 67 0.0 0 0 N 6 11 --- ---
Straubing 351 1024.2 5.4 1.5 14.5 73 0.0 0 0 SO 3 7 wolkenlos ---
Großer Arber 1436 ------ 3.2 1.9 4.0 48 ---- --- 154 O 17 26 wolkenlos ---
Lahr 155 1021.7 10.7 9.7 12.1 91 0.0 2 0 S 3 5 --- ---
Freudenstadt 797 ------ 6.7 6.1 7.7 96 0.0 1 0 W 8 12 Regen ---
Stötten 734 1022.0 7.9 6.6 10.5 89 0.0 0 0 N 4 7 Regen ---
Augsburg 462 1022.8 6.2 3.4 13.2 86 0.0 0 0 - 0 8 --- ---
München-Flh. 444 1023.4 6.1 1.0 15.1 67 0.0 0 0 NO 7 11 bewölkt ---
Fürstenzell 476 1024.2 6.4 4.1 13.9 63 0.0 0 0 NO 9 12 wolkenlos ---
Feldberg/Schw. 1486 ------ 2.9 1.5 2.9 100 ---- --- 62 NW 6 12 leichter Regen ---
Konstanz 443 1022.3 9.3 8.9 15.5 89 0.0 1 0 SO 3 4 --- ---
Kempten 705 1022.9 6.1 4.7 12.8 83 0.0 0 0 SO 4 9 --- ---
Oberstdorf 806 ------ 3.6 1.6 10.1 90 0.0 0 0 O 3 9 --- ---
Zugspitze 2960 ------ -6.4 -6.9 -5.4 87 ---- --- 425 O 15 21 Dunst oder flacher Nebel ---
Hohenpeißenberg 977 ------ 6.2 5.4 11.5 86 0.0 0 0 W 11 16 --- ---

                                                                                              Tabelle: 19 : 00 UHR     

STATIONHÖHELUFTD.TEMP.T-MinT-MaxU%RR1RR12SSSDDFFFXWetter+WolkenBöen
UFS TW Ems 0 1026.1 10.0 8.3 10.5 71 ---- --- --- O 36 --- --- ---
UFS Deutsche Bucht 26 ------ --- --- --- --- ---- --- --- -- --- --- --- ---
Helgoland 4 1027.1 10.4 7.9 12.0 69 0.0 0 0 -- --- ---   ---
List/Sylt 26 1029.0 11.2 5.7 14.9 59 0.0 0 0 SO 37 50 wolkenlos Windböen
Schleswig 43 1029.4 10.2 6.3 13.4 52 0.0 0 0 O 15 36 heiter ---
Leuchtturm Kiel 5 1029.5 7.7 6.2 8.9 81 ---- --- --- O 29 39 --- ---
Kiel 27 1029.4 9.9 5.6 12.8 63 0.0 0 0 O 17 30 wolkenlos ---
Fehmarn 3 1029.9 8.0 6.6 10.5 75 0.0 0 0 O 24 38 wolkenlos ---
Arkona 42 1031.1 6.2 6.2 8.7 91 0.0 0 0 O 19 24 wolkenlos ---
Norderney 11 1025.7 11.5 7.1 18.5 62 0.0 0 0 O 23 40 --- ---
Leuchtt. Alte Weser 32 1026.2 13.4 6.4 15.2 58 ---- --- --- O 40 --- --- ---
Cuxhaven 5 1027.0 12.9 6.6 15.5 61 0.0 0 0 O 29 39 wolkenlos ---
Hamburg-Flh 11 1027.4 12.8 7.4 17.8 60 0.0 0 0 NO 19 31 heiter ---
Schwerin 59 1028.1 14.6 5.2 17.4 50 0.0 0 0 O 15 30 wolkenlos ---
Rostock 4 1029.7 13.0 6.1 16.9 38 0.0 0 0 O 13 33 wolkenlos ---
Greifswald 2 1030.3 6.8 6.1 10.7 85 0.0 0 0 NO 21 31 wolkenlos ---
Emden 0 1025.1 14.2 7.2 19.0 43 0.0 0 0 O 11 23 --- ---
Bremen-Flh. 5 1025.6 15.6 7.8 18.6 31 0.0 0 0 O 19 28 heiter ---
Lüchow 17 1027.2 16.4 6.5 18.0 41 0.0 0 0 O 9 25 wolkenlos ---
Marnitz 81 1027.9 14.6 5.6 17.7 44 0.0 0 --- O 12 28 wolkenlos ---
Waren 70 1028.9 12.9 4.3 17.9 46 0.0 0 0 NO 14 26 wolkenlos ---
Neuruppin 38 1027.8 15.5 5.6 18.7 40 0.0 0 --- NO 4 18 --- ---
Angermünde 56 1028.1 12.8 3.5 18.5 46 0.0 0 0 N 14 32 wolkenlos ---
Münster/Osnabr.-Flh. 48 1023.5 17.7 10.8 20.7 36 0.0 0 0 O 9 21 stark bewölkt ---
Hannover-Flh. 59 1025.6 15.1 6.2 18.4 28 0.0 0 0 O 18 31 heiter ---
Magdeburg 76 1026.3 16.4 6.6 18.8 39 0.0 0 0 O 9 26 wolkenlos ---
Potsdam 81 1027.1 14.7 5.3 19.2 42 0.0 0 0 O 12 27 heiter ---
Berlin-Tegel 37 1027.3 16.7 5.7 18.5 38 0.0 0 0 O 8 26 heiter ---
Berlin-Tempelhof 48 1027.3 14.6 5.8 17.6 45 0.0 0 --- NO 13 23 --- ---
Berlin-Dahlem 51 1027.1 15.2 4.7 18.6 --- ---- 0 0 O 14 --- heiter ---
Lindenberg 91 1027.0 15.1 4.9 18.5 41 0.0 0 0 NO 6 15 wolkenlos ---
Düsseldorf-Flh. 45 1022.3 16.0 11.5 18.0 62 0.0 0 0 O 7 28 heiter ---
Essen 150 1022.3 16.3 11.2 17.0 57 0.0 0 0 O 7 15 --- ---
Kahler Asten 839 ------ 10.3 5.7 10.5 48 0.0 0 0 O 13 19 --- ---
Bad Lippspringe 157 1023.6 16.2 10.1 20.0 34 0.0 0 0 NO 17 25 --- ---
Fritzlar 174 1023.4 15.6 9.5 17.6 32 ---- 0 0 O 14 --- bewölkt ---
Brocken 1142 ------ 6.1 4.6 9.0 67 ---- 0 102 O 34 46 heiter ---
Leipzig-Flh. 142 1025.9 14.3 4.8 17.6 48 0.0 0 0 O 13 31 heiter ---
Dresden-Flh. 227 1026.1 14.2 7.0 17.6 44 0.0 0 0 O 14 27 heiter ---
Cottbus 69 1026.6 14.9 4.6 19.1 32 0.0 0 0 O 5 21 wolkenlos ---
Görlitz 238 1026.6 13.8 4.2 16.7 42 0.0 0 0 O 10 25 wolkenlos ---
Aachen 231 1021.4 14.4 9.0 15.4 64 0.0 0 0 O 13 21 --- ---
Nürburg 485 1021.8 12.5 7.8 15.3 71 0.0 0 0 O 8 22   ---
Köln/Bonn-Flh. 92 1021.8 16.8 9.9 18.5 57 0.0 0 0 SO 8 23 heiter ---
Gießen/Wettenberg 203 1022.4 14.0 7.7 17.0 53 0.0 0 0 NO 15 24 --- ---
Wasserkuppe 921 ------ 10.6 6.9 15.0 42 0.0 0 0 O 14 24 bewölkt ---
Meiningen 450 1023.2 13.6 7.6 18.4 39 0.0 0 0 NO 18 29 --- ---
Erfurt 316 1024.6 13.2 --- --- 41 0.0 0 0 NO 10 24 heiter ---
Gera 311 1025.0 13.6 2.4 17.5 53 0.0 0 0 O 17 26 wolkenlos ---
Fichtelberg 1213 ------ 5.5 3.5 9.1 66 ---- --- --- O 30 43 wolkenlos ---
Trier 265 1020.9 14.7 8.9 17.9 62 0.0 0 0 O 8 19 --- ---
Hahn-Flh. 497 1021.7 11.9 7.9 14.8 74 0.0 0 0 O 10 23 --- ---
Frankfurt/M-Flh. 112 1021.5 17.0 10.7 18.5 39 0.0 0 0 N 14 29 heiter ---
OF-Wetterpark 119 1021.3 17.5 10.0 19.1 34 ---- --- 0 NO 12 19   ---
Würzburg 268 1021.8 17.5 9.8 20.3 25 0.0 0 0 SO 18 25 --- ---
Bamberg 239 ------ --- --- --- --- ---- --- --- -- --- --- --- ---
Hof 567 1024.2 13.0 5.6 17.0 47 0.0 0 0 O 13 30 wolkenlos ---
Weiden 438 1023.9 13.6 3.9 17.0 44 0.0 0 0 NO 15 28 wolkenlos ---
Saarbrücken-Flh. 320 1020.5 15.3 8.5 16.8 63 0.0 0 0 O 17 30 heiter ---
Karlsruhe-Rheinst. 116 1019.9 17.4 10.5 18.8 55 0.0 0 0 NO 12 22 --- ---
Mannheim 96 1020.6 17.5 10.5 20.1 44 0.0 0 0 N 12 22   ---
Stuttgart-Flh. 371 1020.2 15.4 8.7 18.8 43 0.0 0 0 O 11 18 heiter ---
Öhringen 276 1020.8 16.6 9.5 20.6 37 0.0 0 0 O 12 24 wolkenlos ---
Nürnberg-Flh. 314 1022.2 16.5 8.5 20.0 20 0.0 0 0 O 14 28 heiter ---
Regensburg 366 1022.6 14.8 4.5 20.0 34 0.0 0 0 NO 12 24 wolkenlos ---
Straubing 351 1022.1 16.1 5.6 18.3 31 0.0 0 0 N 7 16 wolkenlos ---
Großer Arber 1436 ------ 4.3 3.1 7.7 76 ---- --- 150 O 16 32 wolkenlos ---
Lahr 155 1019.5 16.1 10.8 18.3 70 0.0 0 0 N 8 20 --- ---
Freudenstadt 797 ------ 11.8 6.7 14.3 70 0.0 0 0 O 6 18 --- ---
Stötten 734 1020.9 12.2 7.9 16.3 37 0.0 0 0 O 17 30 wolkenlos ---
Augsburg 462 1021.6 13.4 6.2 17.8 33 0.0 0 0 O 15 29 --- ---
München-Flh. 444 1021.8 14.5 6.1 17.5 28 0.0 0 0 O 13 26 heiter ---
Fürstenzell 476 1023.1 13.3 6.4 17.4 51 0.0 0 0 O 21 32 wolkenlos ---
Feldberg/Schw. 1486 ------ 6.5 2.5 7.4 75 ---- --- 59 O 26 36 --- ---
Konstanz 443 1018.4 17.0 9.2 20.0 43 0.0 0 0 NO 10 21 --- ---
Kempten 705 1019.6 13.7 6.2 17.2 35 0.0 0 0 NO 6 23 wolkenlos ---
Oberstdorf 806 ------ 11.0 3.7 17.3 66 0.0 0 0 S 7 11 wolkenlos ---
Zugspitze 2960 ------ -3.1 -6.6 -2.1 75 ---- --- --- SO 13 17 --- ---
Hohenpeißenberg 977 ------ 10.7 6.2 14.7 41 0.0 0 0 NO 18 33 --- ---

 

  • Temperatur
  • Wetterzustand
  • Windrichtung und -geschwindigkeit
  • Luftdruck
  • relative Luftfeuchtigkeit
  • Sichtweite
  • Gesamtbedeckungsgrad
  • Niederschlag
  • Sonnenscheindauer

 Höhe:     m über NN
Luftd.:   auf Meereshöhe reduzierter Luftdruck in hPa
TEMP.:   Lufttemperatur in Grad Celsius
T-MIN:   Minimumtemperatur der Luft in 2m Höhe in Grad Celsius, von 18 UTC Vortag bis 06 UTC heute
T-MAX:  Maximumtemperatur der Luft in 2m Höhe in Grad Celsius, von 18 UTC Vortag bis 06 UTC heute
RR1:     Niederschlagsmenge, einstündig, mm ist gleich Liter pro
RR12:   Niederschlagsmenge, 12 stündig, 18 UTC Vortag bis 06 UTC heute in mm ist gleich Liter pro
SSS:     Gesamtschneehöhe
DD:      Windrichtung
FF:       Windgeschwindigkeit letztes 10-Minutenmittel in km/h
FX:       höchste Windspitze während der letzten Stunde in km/h
---:      Wert nicht vorhanden

 

2009-2019

Unwetterwarnungen

 

Radarbild          
aktueller Radarfilm Deutschland

Europa-Meteoalarm